
Distance (Route):
Temperature : -43.8°C
Humidity : 53.5%
Pressure : 314.1hPa| Receiver | Frames | First received | Last received |
|---|---|---|---|
| DL1XH-west | 195 | 2026-09-01 12:05:23 | 2026-09-01 12:40:50 |
| DJ2DS-15 | 40 | 2026-09-01 11:57:59 | 2026-09-01 12:43:08 |
| DM0DOS-11 | 36 | 2026-09-01 12:30:07 | 2026-09-01 12:37:20 |
| BIOWL1-15 | 10 | 2026-09-01 12:33:29 | 2026-09-01 12:35:27 |
| BIOWL9-15 | 1 | 2026-09-01 12:33:46 | 2026-09-01 12:33:46 |
| Receiver | Date | Latitude | Longitude | Direction | Speed | Altitude | Climb | Temperature | Humidity | Pressure | Voltage | Killtimer | Uptime | BKT | XDATA |
|---|---|---|---|---|---|---|---|---|---|---|---|---|---|---|---|
| DJ2DS-15 | 2026-09-01 12:43:08 | 56.66230 | 4.27436 | 79° | 69km/h | 8969m | -17.8m/s | -43.8°C | 53.5% | 314.1hPa | 2.6V | 00:00:00 | 00:00:00 | 00:00:00 | |
| DJ2DS-15 | 2026-09-01 12:42:57 | 56.66198 | 4.27088 | 80° | 69km/h | 9168m | -17.8m/s | -45.4°C | 62.7% | 304.8hPa | 2.6V | 00:00:00 | 02:26:06 | 00:00:00 | |
| DJ2DS-15 | 2026-09-01 12:41:56 | 56.65956 | 4.25235 | 73° | 73km/h | 10404m | -19.2m/s | -55.2°C | 45.8% | 252.2hPa | 2.6V | 00:00:00 | 00:00:00 | 00:00:00 | |
| DJ2DS-15 | 2026-09-01 12:41:40 | 56.65882 | 4.24793 | 71° | 68km/h | 10722m | -22.0m/s | -56.1°C | 33.2% | 239.7hPa | 2.6V | 00:00:00 | 02:24:49 | 00:00:00 | |
| DJ2DS-15 | 2026-09-01 12:41:20 | 56.65774 | 4.24168 | 68° | 69km/h | 11172m | -21.1m/s | -55.9°C | 11.8% | 223.3hPa | 2.6V | 00:00:00 | 00:00:00 | 00:00:00 | |
| DL1XH-west | 2026-09-01 12:40:50 | 56.65648 | 4.23253 | 81° | 66km/h | 11802m | -21.6m/s | -51.5°C | 2.6% | 202.3hPa | 2.6V | 08:25:48 | 02:23:59 | 00:00:00 | |
| DL1XH-west | 2026-09-01 12:40:40 | 56.65606 | 4.22997 | 69° | 60km/h | 12018m | -21.5m/s | -50.9°C | 1.9% | 195.7hPa | 2.4V | 08:25:48 | 02:23:49 | 00:00:00 | |
| DJ2DS-15 | 2026-09-01 12:40:20 | 56.65546 | 4.22448 | 74° | 57km/h | 12454m | -21.5m/s | -48.7°C | 3.5% | 183.0hPa | 2.4V | 00:00:00 | 02:23:29 | 00:00:00 | |
| DL1XH-west | 2026-09-01 12:39:58 | 56.65422 | 4.21927 | 76° | 58km/h | 12949m | -22.7m/s | -49.3°C | 0.5% | 169.8hPa | 2.4V | 08:25:48 | 02:23:07 | 00:00:00 | |
| DL1XH-west | 2026-09-01 12:39:48 | 56.65390 | 4.21688 | 74° | 55km/h | 13175m | -24.2m/s | -49.6°C | 0.5% | 163.9hPa | 2.5V | 08:25:48 | 02:22:57 | 00:00:00 | |
| DL1XH-west | 2026-09-01 12:39:35 | 56.65320 | 4.21322 | 74° | 71km/h | 13480m | -24m/s | -48.6°C | 0.3% | 156.5hPa | 2.5V | 08:26:39 | 02:22:44 | 00:00:00 | |
| DL1XH-west | 2026-09-01 12:39:24 | 56.65282 | 4.21028 | 74° | 53km/h | 13739m | -23.4m/s | -47.5°C | 0.1% | 150.5hPa | 2.5V | 08:26:39 | 02:22:33 | 00:00:00 | |
| DL1XH-west | 2026-09-01 12:39:14 | 56.65255 | 4.20781 | 88° | 49km/h | 14001m | -24.1m/s | -48°C | 0.2% | 144.5hPa | 2.5V | 08:26:39 | 02:22:22 | 00:00:00 | |
| DL1XH-west | 2026-09-01 12:39:03 | 56.65252 | 4.20578 | 79° | 42km/h | 14233m | -22.8m/s | -48.5°C | 0.3% | 139.6hPa | 2.5V | 08:26:39 | 02:22:12 | 00:00:00 | |
| DL1XH-west | 2026-09-01 12:38:53 | 56.65225 | 4.20359 | 75° | 47km/h | 14501m | -24.8m/s | -48.8°C | 0.3% | 134hPa | 2.5V | 08:26:39 | 02:22:01 | 00:00:00 | |
| DL1XH-west | 2026-09-01 12:38:42 | 56.65189 | 4.20144 | 65° | 42km/h | 14779m | -24.9m/s | -49°C | 0.3% | 128.4hPa | 2.6V | 08:27:30 | 02:21:50 | 00:00:00 | |
| DL1XH-west | 2026-09-01 12:38:30 | 56.65136 | 4.19915 | 73° | 55km/h | 15059m | -26.8m/s | -49.5°C | 0.4% | 123hPa | 2.5V | 08:27:30 | 02:21:39 | 00:00:00 | |
| DL1XH-west | 2026-09-01 12:38:20 | 56.65084 | 4.19546 | 80° | 49km/h | 15501m | -25.8m/s | -50.3°C | 0.5% | 115hPa | 2.6V | 08:27:30 | 02:21:23 | 00:00:00 | |
| DL1XH-west | 2026-09-01 12:38:04 | 56.65056 | 4.19330 | 75° | 42km/h | 15786m | -26.2m/s | -49.8°C | 0.3% | 110.1hPa | 2.6V | 08:27:30 | 02:21:12 | 00:00:00 | |
| DL1XH-west | 2026-09-01 12:37:52 | 56.65022 | 4.19135 | 67° | 42km/h | 16083m | -27.3m/s | -49.1°C | 0.2% | 105.2hPa | 2.5V | 08:28:21 | 02:21:01 | 00:00:00 | |
| DL1XH-west | 2026-09-01 12:37:42 | 56.64985 | 4.18943 | 62° | 37km/h | 16388m | -29.7m/s | -48.9°C | 0.3% | 100.4hPa | 2.5V | 08:28:21 | 02:20:50 | 00:00:00 | |
| DL1XH-west | 2026-09-01 12:37:32 | 56.64934 | 4.18773 | 53° | 47km/h | 16680m | -29.2m/s | -47.9°C | 0.1% | 96.1hPa | 2.6V | 08:28:21 | 02:20:40 | 00:00:00 | |
| DL1XH-west | 2026-09-01 12:37:20 | 56.64862 | 4.18569 | 68° | 49km/h | 16993m | -26.9m/s | -48.5°C | 0.2% | 91.6hPa | 2.6V | 08:28:21 | 02:20:29 | 00:00:00 | |
| DM0DOS-11 | 2026-09-01 12:37:20 | 56.64858 | 4.18547 | 68° | 51km/h | 17019m | -26.3m/s | -48.5°C | 3.3% | 91.2hPa | 2.6V | 08:28:08 | 02:20:28 | 00:00:00 | |
| DJ2DS-15 | 2026-09-01 12:37:20 | 56.64862 | 4.18569 | 69° | 42km/h | 16993m | -26.8m/s | -48.4°C | 3.3% | 91.6hPa | 2.6V | 00:00:00 | 02:20:29 | 00:00:00 | |
| DM0DOS-11 | 2026-09-01 12:37:14 | 56.64827 | 4.18334 | 71° | 42km/h | 17322m | -28.4m/s | -47.8°C | 3.1% | 87.1hPa | 2.6V | 08:28:19 | 02:20:17 | 00:00:00 | |
| DL1XH-west | 2026-09-01 12:37:09 | 56.64825 | 4.18316 | 75° | 40km/h | 17352m | -28.2m/s | -47.8°C | 0% | 86.8hPa | 2.5V | 08:28:21 | 02:20:16 | 00:00:00 | |
| DJ2DS-15 | 2026-09-01 12:37:07 | 56.64825 | 4.18316 | 75° | 38km/h | 17352m | -28.2m/s | -47.8°C | 0.9% | 86.8hPa | 2.5V | 00:00:00 | 00:00:00 | 00:00:00 | |
| DM0DOS-11 | 2026-09-01 12:37:03 | 56.64806 | 4.18189 | 65° | 26km/h | 17612m | -30.7m/s | -47.7°C | 3% | 83.4hPa | 2.5V | 08:30:00 | 02:20:07 | 00:00:00 | |
| DL1XH-west | 2026-09-01 12:36:59 | 56.64808 | 4.18200 | 70° | 26km/h | 17581m | -30.1m/s | -47.8°C | 0% | 83.8hPa | 2.5V | 08:29:12 | 02:20:08 | 00:00:00 | |
| DM0DOS-11 | 2026-09-01 12:36:50 | 56.64774 | 4.18073 | 71° | 38km/h | 17909m | -29.6m/s | -49.3°C | 3.5% | 79.7hPa | 2.6V | 08:30:00 | 02:19:57 | 00:00:00 | |
| DL1XH-west | 2026-09-01 12:36:49 | 56.64777 | 4.18088 | 66° | 33km/h | 17880m | -28.7m/s | -49.3°C | 0.2% | 80hPa | 2.6V | 08:29:12 | 02:19:58 | 00:00:00 | |
| DM0DOS-11 | 2026-09-01 12:36:43 | 56.64748 | 4.17910 | 73° | 33km/h | 18202m | -30m/s | -49°C | 3.5% | 76.2hPa | 2.6V | 08:30:00 | 02:19:47 | 00:00:00 | |
| DL1XH-west | 2026-09-01 12:36:39 | 56.64751 | 4.17924 | 73° | 33km/h | 18173m | -29.6m/s | -49.2°C | 0.3% | 76.5hPa | 2.5V | 08:29:12 | 02:19:48 | 00:00:00 | |
| DM0DOS-11 | 2026-09-01 12:36:30 | 56.64725 | 4.17774 | 67° | 27km/h | 18511m | -29.4m/s | -48.6°C | 3.5% | 72.6hPa | 2.5V | 08:30:00 | 02:19:37 | 00:00:00 | |
| DL1XH-west | 2026-09-01 12:36:28 | 56.64725 | 4.17774 | 68° | 27km/h | 18511m | -29.4m/s | -48.7°C | 0.3% | 72.6hPa | 2.5V | 08:29:12 | 02:19:37 | 00:00:00 | |
| DM0DOS-11 | 2026-09-01 12:36:23 | 56.64697 | 4.17687 | 48° | 26km/h | 18806m | -30.6m/s | -48.1°C | 3.3% | 69.4hPa | 2.6V | 08:30:00 | 02:19:27 | 00:00:00 | |
| DL1XH-west | 2026-09-01 12:36:18 | 56.64693 | 4.17679 | 43° | 26km/h | 18837m | -30.2m/s | -48.1°C | 0.2% | 69.1hPa | 2.6V | 08:29:12 | 02:19:26 | 00:00:00 | |
| DM0DOS-11 | 2026-09-01 12:36:11 | 56.64642 | 4.17554 | 59° | 38km/h | 19179m | -31m/s | -48.4°C | 3.4% | 65.6hPa | 2.5V | 08:30:00 | 02:19:15 | 00:00:00 | |
| DL1XH-west | 2026-09-01 12:36:07 | 56.64647 | 4.17568 | 61° | 35km/h | 19150m | -31.3m/s | -48.2°C | 0.2% | 65.9hPa | 2.5V | 18:12:15 | 02:19:16 | 00:00:00 | |
| DM0DOS-11 | 2026-09-01 12:36:00 | 56.64618 | 4.17436 | 65° | 22km/h | 19497m | -32.6m/s | -47.3°C | 3.1% | 62.5hPa | 2.6V | 08:30:00 | 02:19:05 | 00:00:00 | |
| DL1XH-west | 2026-09-01 12:35:57 | 56.64618 | 4.17436 | 66° | 24km/h | 19497m | -32.6m/s | -47.3°C | 0% | 62.5hPa | 2.6V | 18:12:15 | 02:19:05 | 00:00:00 | |
| DL1XH-west | 2026-09-01 12:35:46 | 56.64609 | 4.17330 | 81° | 16km/h | 19823m | -33.4m/s | -47.7°C | 0% | 59.5hPa | 2.6V | 18:12:15 | 02:18:55 | 00:00:00 | |
| DM0DOS-11 | 2026-09-01 12:35:41 | 56.64590 | 4.17285 | 32° | 18km/h | 20084m | -33.5m/s | -48.5°C | 3.2% | 57.2hPa | 2.6V | 08:30:00 | 02:18:47 | 00:00:00 | |
| DL1XH-west | 2026-09-01 12:35:36 | 56.64577 | 4.17270 | 29° | 24km/h | 20185m | -34.5m/s | -48.8°C | 0.2% | 56.4hPa | 2.5V | 18:12:15 | 02:18:44 | 00:00:00 | |
| DM0DOS-11 | 2026-09-01 12:35:30 | 56.64539 | 4.17231 | 33° | 33km/h | 20387m | -33.5m/s | -48.8°C | 3.3% | 54.6hPa | 2.5V | 08:30:00 | 02:18:38 | 00:00:00 | |
| BIOWL1-15 | 2026-09-01 12:35:27 | 56.64519 | 4.17205 | 43° | 31km/h | 20486m | -33.4m/s | -49.1°C | 0.2% | 53.8hPa | 2.6V | 18:12:15 | 02:18:35 | 00:00:00 | |
| DL1XH-west | 2026-09-01 12:35:24 | 56.64508 | 4.17185 | 44° | 31km/h | 20553m | -33m/s | -49.3°C | 0.2% | 53.3hPa | 2.6V | 18:12:15 | 02:18:33 | 00:00:00 | |
| DM0DOS-11 | 2026-09-01 12:35:20 | 56.64484 | 4.17132 | 53° | 27km/h | 20720m | -32.9m/s | -49.5°C | 3.5% | 51.9hPa | 2.6V | 08:30:00 | 02:18:28 | 00:00:00 | |
| DL1XH-west | 2026-09-01 12:35:14 | 56.64465 | 4.17087 | 48° | 22km/h | 20882m | -34.6m/s | -49.3°C | 0.2% | 50.6hPa | 2.5V | 18:12:15 | 02:18:23 | 00:00:00 | |
| DL1XH-west | 2026-09-01 12:35:04 | 56.64419 | 4.17011 | 64° | 29km/h | 21216m | -30.3m/s | -50°C | 0.1% | 48.1hPa | 2.6V | 18:12:15 | 02:18:13 | 00:00:00 | |
| DM0DOS-11 | 2026-09-01 12:35:00 | 56.64406 | 4.16947 | 73° | 29km/h | 21344m | -17.3m/s | -50.4°C | 3.7% | 47.1hPa | 2.6V | 08:30:00 | 02:18:08 | 00:00:00 | |
| BIOWL1-15 | 2026-09-01 12:34:56 | 56.64392 | 4.16839 | 71° | 31km/h | 21337m | 4.7m/s | -50.4°C | 0.4% | 47.1hPa | 2.6V | 18:12:15 | 02:18:00 | 00:00:00 | |
| DL1XH-west | 2026-09-01 12:34:54 | 56.64397 | 4.16867 | 78° | 33km/h | 21348m | 4.1m/s | -50.4°C | 0.3% | 47.1hPa | 2.6V | 18:12:15 | 02:18:02 | 00:00:00 | |
| BIOWL1-15 | 2026-09-01 12:34:44 | 56.64374 | 4.16746 | 68° | 29km/h | 21302m | 5.6m/s | -50.2°C | 0.4% | 47.4hPa | 2.5V | 18:12:15 | 02:17:53 | 00:00:00 | |
| DL1XH-west | 2026-09-01 12:34:43 | 56.64367 | 4.16722 | 56° | 29km/h | 21292m | 5.3m/s | -50.1°C | 0.4% | 47.5hPa | 2.5V | 18:12:15 | 02:17:51 | 00:00:00 | |
| BIOWL1-15 | 2026-09-01 12:34:35 | 56.64326 | 4.16626 | 62° | 27km/h | 21243m | 5.3m/s | -50.1°C | 0.3% | 47.8hPa | 2.6V | 18:12:15 | 02:17:42 | 00:00:00 | |
| DM0DOS-11 | 2026-09-01 12:34:33 | 56.64310 | 4.16585 | 43° | 27km/h | 21224m | 3.6m/s | -50.1°C | 3.6% | 48hPa | 2.5V | 08:30:00 | 02:17:38 | 00:00:00 | |
| DL1XH-west | 2026-09-01 12:34:32 | 56.64322 | 4.16615 | 62° | 27km/h | 21238m | 4.5m/s | -50.1°C | 0.4% | 47.9hPa | 2.6V | 18:12:15 | 02:17:41 | 00:00:00 | |
| BIOWL1-15 | 2026-09-01 12:34:23 | 56.64273 | 4.16525 | 38° | 35km/h | 21191m | 6m/s | -50.1°C | 0.4% | 0hPa | 2.5V | 18:12:15 | 02:17:32 | 00:00:00 | |
| DL1XH-west | 2026-09-01 12:34:22 | 56.64255 | 4.16498 | 35° | 29km/h | 21176m | 5.9m/s | -50.1°C | 0.4% | 48.3hPa | 2.6V | 18:12:15 | 02:17:29 | 00:00:00 | |
| DM0DOS-11 | 2026-09-01 12:34:21 | 56.64249 | 4.16491 | 31° | 27km/h | 21170m | 4.4m/s | -50.1°C | 3.6% | 48.3hPa | 2.6V | 08:30:00 | 02:17:28 | 00:00:00 | |
| BIOWL1-15 | 2026-09-01 12:34:13 | 56.64197 | 4.16418 | 29° | 24km/h | 21121m | 5.9m/s | -50.2°C | 0.4% | 0hPa | 2.5V | 18:12:15 | 02:17:18 | 00:00:00 | |
| DL1XH-west | 2026-09-01 12:34:10 | 56.64202 | 4.16423 | 37° | 22km/h | 21126m | 4.8m/s | -50.3°C | 0.4% | 48.7hPa | 2.5V | 18:12:15 | 02:17:19 | 00:00:00 | |
| DM0DOS-11 | 2026-09-01 12:34:07 | 56.64156 | 4.16394 | 11° | 26km/h | 21082m | 6.1m/s | -50°C | 3.6% | 49hPa | 2.6V | 08:30:00 | 02:17:11 | 00:00:00 | |
| BIOWL1-15 | 2026-09-01 12:34:02 | 56.64156 | 4.16394 | 11° | 26km/h | 21082m | 6.1m/s | -50°C | 0.3% | 0hPa | 2.6V | 18:12:15 | 02:17:11 | 00:00:00 | |
| DL1XH-west | 2026-09-01 12:33:59 | 56.64137 | 4.16383 | 19° | 27km/h | 21067m | 5.8m/s | -49.9°C | 0.4% | 49.1hPa | 2.6V | 18:12:15 | 02:17:08 | 00:00:00 | |
| DM0DOS-11 | 2026-09-01 12:33:55 | 56.64087 | 4.16358 | 20° | 18km/h | 21021m | 4.6m/s | -49.7°C | 3.6% | 49.5hPa | 2.5V | 08:30:00 | 02:16:59 | 00:00:00 | |
| BIOWL1-15 | 2026-09-01 12:33:51 | 56.64083 | 4.16355 | 24° | 18km/h | 21016m | 4.3m/s | -49.7°C | 0% | 0hPa | 2.6V | 18:12:15 | 02:16:58 | 00:00:00 | |
| DL1XH-west | 2026-09-01 12:33:49 | 56.64079 | 4.16351 | 24° | 20km/h | 21011m | 5.9m/s | -49.7°C | 0.3% | 49.5hPa | 2.6V | 18:12:15 | 02:16:57 | 00:00:00 | |
| BIOWL9-15 | 2026-09-01 12:33:46 | 56.64064 | 4.16341 | 22° | 20km/h | 20996m | 5.9m/s | 0°C | -1.0% | -1.0hPa | 2.6V | 00:00:00 | 00:00:00 | 00:00:00 | |
| DM0DOS-11 | 2026-09-01 12:33:45 | 56.64041 | 4.16319 | 33° | 22km/h | 20970m | 5.7m/s | -49.6°C | 3.5% | 49.8hPa | 2.6V | 08:30:00 | 02:16:49 | 00:00:00 | |
| BIOWL1-15 | 2026-09-01 12:33:41 | 56.64041 | 4.16319 | 34° | 22km/h | 20970m | 5.7m/s | 0°C | 0% | 0hPa | 2.6V | 18:12:15 | 02:16:49 | 00:00:00 | |
| DL1XH-west | 2026-09-01 12:33:38 | 56.64029 | 4.16301 | 37° | 20km/h | 20955m | 5.4m/s | -49.6°C | 0.4% | 50hPa | 2.5V | 18:12:15 | 02:16:46 | 00:00:00 | |
| DM0DOS-11 | 2026-09-01 12:33:35 | 56.64005 | 4.16267 | 50° | 18km/h | 20919m | 5.7m/s | -49.5°C | 3.5% | 50.2hPa | 2.5V | 08:30:00 | 02:16:39 | 00:00:00 | |
| BIOWL1-15 | 2026-09-01 12:33:29 | 56.63999 | 4.16253 | 51° | 20km/h | 20908m | 5.2m/s | 0°C | 0% | 0hPa | 2.6V | 18:12:15 | 02:16:37 | 00:00:00 | |
| DL1XH-west | 2026-09-01 12:33:26 | 56.63993 | 4.16238 | 50° | 20km/h | 20899m | 4.3m/s | -49.6°C | 0.3% | 50.4hPa | 2.5V | 18:12:15 | 02:16:35 | 00:00:00 | |
| DL1XH-west | 2026-09-01 12:33:15 | 56.63960 | 4.16130 | 72° | 27km/h | 20840m | 5.2m/s | -49.6°C | 0.4% | 50.9hPa | 2.6V | 18:12:15 | 02:16:24 | 00:00:00 | |
| DM0DOS-11 | 2026-09-01 12:33:14 | 56.63943 | 4.16068 | 56° | 31km/h | 20815m | 5.7m/s | -49.4°C | 3.4% | 51hPa | 2.6V | 08:30:00 | 02:16:19 | 00:00:00 | |
| DL1XH-west | 2026-09-01 12:33:04 | 56.63919 | 4.16010 | 62° | 24km/h | 20783m | 5.5m/s | -49.4°C | 0.3% | 51.3hPa | 2.5V | 18:12:15 | 02:16:13 | 00:00:00 | |
| DM0DOS-11 | 2026-09-01 12:33:02 | 56.63906 | 4.15963 | 61° | 35km/h | 20763m | 3.9m/s | -49.5°C | 3.5% | 51.5hPa | 2.5V | 08:30:00 | 02:16:09 | 00:00:00 | |
| DL1XH-west | 2026-09-01 12:32:53 | 56.63876 | 4.15875 | 54° | 29km/h | 20727m | 5.9m/s | -49.7°C | 0.3% | 51.8hPa | 2.5V | 18:12:15 | 02:16:02 | 00:00:00 | |
| DM0DOS-11 | 2026-09-01 12:32:52 | 56.63863 | 4.15846 | 45° | 27km/h | 20712m | 5.4m/s | -49.8°C | 3.5% | 51.9hPa | 2.6V | 08:30:00 | 02:15:59 | 00:00:00 | |
| DM0DOS-11 | 2026-09-01 12:32:45 | 56.63812 | 4.15753 | 56° | 35km/h | 20663m | 4.3m/s | -49.9°C | 3.6% | 52.3hPa | 2.5V | 08:30:00 | 02:15:49 | 00:00:00 | |
| DL1XH-west | 2026-09-01 12:32:43 | 56.63828 | 4.15787 | 42° | 33km/h | 20677m | 4m/s | -49.9°C | 0.5% | 52.2hPa | 2.6V | 18:12:15 | 02:15:52 | 00:00:00 | |
| DL1XH-west | 2026-09-01 12:32:33 | 56.63773 | 4.15661 | 42° | 37km/h | 20627m | 4.8m/s | -49.8°C | 0.4% | 52.6hPa | 2.5V | 18:12:15 | 02:15:42 | 00:00:00 | |
| DM0DOS-11 | 2026-09-01 12:32:32 | 56.63754 | 4.15629 | 42° | 31km/h | 20611m | 4.9m/s | -49.7°C | 3.6% | 52.7hPa | 2.6V | 08:30:00 | 02:15:39 | 00:00:00 | |
| DM0DOS-11 | 2026-09-01 12:32:25 | 56.63696 | 4.15526 | 38° | 27km/h | 20559m | 4.8m/s | -49.5°C | 3.5% | 53.1hPa | 2.5V | 08:30:00 | 02:15:29 | 00:00:00 | |
| DL1XH-west | 2026-09-01 12:32:23 | 56.63696 | 4.15526 | 38° | 27km/h | 20559m | 4.8m/s | -49.5°C | 0.3% | 53.1hPa | 2.5V | 18:12:15 | 02:15:29 | 00:00:00 | |
| DJ2DS-15 | 2026-09-01 12:32:19 | 56.63684 | 4.15512 | 35° | 27km/h | 20548m | 5.8m/s | -49.5°C | 0.9% | 53.2hPa | 2.6V | 00:00:00 | 00:00:00 | 00:00:00 | |
| DJ2DS-15 | 2026-09-01 12:32:18 | 56.63684 | 4.15512 | 36° | 33km/h | 20548m | 5.8m/s | -49.4°C | 3.5% | 53.1hPa | 2.6V | 00:00:00 | 02:15:27 | 00:00:00 | |
| DM0DOS-11 | 2026-09-01 12:32:12 | 56.63636 | 4.15435 | 49° | 33km/h | 20507m | 6.3m/s | -49.4°C | 3.5% | 53.5hPa | 2.6V | 08:30:00 | 02:15:19 | 00:00:00 | |
| DL1XH-west | 2026-09-01 12:32:10 | 56.63636 | 4.15435 | 50° | 33km/h | 20507m | 6.3m/s | -49.4°C | 0.4% | 53.5hPa | 2.6V | 18:12:15 | 02:15:19 | 00:00:00 | |
| DM0DOS-11 | 2026-09-01 12:32:06 | 56.63559 | 4.15336 | 39° | 35km/h | 20450m | 5.6m/s | 0°C | 0% | 0hPa | 2.5V | 08:30:00 | 02:15:08 | 00:00:00 | |
| DL1XH-west | 2026-09-01 12:32:00 | 56.63559 | 4.15336 | 39° | 35km/h | 20450m | 5.6m/s | -49.2°C | 0.3% | 54hPa | 2.5V | 18:12:15 | 02:15:08 | 00:00:00 | |
| DJ2DS-15 | 2026-09-01 12:31:58 | 56.63553 | 4.15326 | 43° | 33km/h | 20445m | 4.3m/s | -49.0°C | 3.4% | 54.0hPa | 2.6V | 00:00:00 | 02:15:07 | 08:30:00 | |
| DM0DOS-11 | 2026-09-01 12:31:53 | 56.63491 | 4.15262 | 21° | 40km/h | 20404m | 3.7m/s | 0°C | 0% | 0hPa | 2.6V | 08:30:00 | 02:14:59 | 00:00:00 | |
| DL1XH-west | 2026-09-01 12:31:49 | 56.63473 | 4.15249 | 23° | 35km/h | 20394m | 4.4m/s | -49°C | 0.2% | 54.5hPa | 2.5V | 18:12:15 | 02:14:57 | 00:00:00 | |
| DM0DOS-11 | 2026-09-01 12:31:45 | 56.63420 | 4.15194 | 33° | 33km/h | 20352m | 3.9m/s | 0°C | 0% | 0hPa | 2.6V | 08:30:00 | 02:14:49 | 00:00:00 | |
| DJ2DS-15 | 2026-09-01 12:31:42 | 56.63434 | 4.15209 | 33° | 27km/h | 20363m | 5.1m/s | -49.2°C | 1.0% | 54.7hPa | 2.6V | 00:00:00 | 00:00:00 | 00:00:00 | |
| DJ2DS-15 | 2026-09-01 12:31:38 | 56.63406 | 4.15179 | 25° | 27km/h | 20343m | 5.5m/s | -49.1°C | 3.4% | 54.8hPa | 2.6V | 00:00:00 | 02:14:47 | 00:00:00 | |
| DL1XH-west | 2026-09-01 12:31:38 | 56.63398 | 4.15173 | 20° | 33km/h | 20338m | 4.7m/s | -49.1°C | 0.3% | 54.9hPa | 2.5V | 18:12:15 | 02:14:46 | 00:00:00 | |
| DM0DOS-11 | 2026-09-01 12:31:32 | 56.63351 | 4.15142 | 19° | 20km/h | 20303m | 4m/s | 0°C | 0% | 0hPa | 2.6V | 08:30:00 | 02:14:39 | 00:00:00 | |
| DL1XH-west | 2026-09-01 12:31:26 | 56.63331 | 4.15122 | 27° | 24km/h | 20284m | 5.6m/s | -49°C | 0.3% | 55.4hPa | 2.6V | 18:12:15 | 02:14:35 | 00:00:00 | |
| DM0DOS-11 | 2026-09-01 12:31:25 | 56.63294 | 4.15094 | 19° | 27km/h | 20255m | 5.8m/s | 0°C | 0% | 0hPa | 2.6V | 08:30:00 | 02:14:29 | 00:00:00 | |
| DL1XH-west | 2026-09-01 12:31:16 | 56.63267 | 4.15074 | 24° | 18km/h | 20229m | 6.1m/s | -49.2°C | 0.1% | 55.9hPa | 2.6V | 18:12:15 | 02:14:24 | 00:00:00 | |
| DL1XH-west | 2026-09-01 12:31:05 | 56.63229 | 4.15033 | 43° | 18km/h | 20177m | 3.6m/s | -49.1°C | 0.3% | 56.3hPa | 2.5V | 18:12:15 | 02:14:14 | 00:00:00 | |
| DL1XH-west | 2026-09-01 12:30:55 | 56.63186 | 4.14982 | 51° | 20km/h | 20123m | 4.7m/s | -48.9°C | 0.4% | 56.8hPa | 2.6V | 18:12:15 | 02:14:03 | 00:00:00 | |
| DM0DOS-11 | 2026-09-01 12:30:53 | 56.63175 | 4.14957 | 50° | 18km/h | 20103m | 4.3m/s | 0°C | 0% | 0hPa | 2.5V | 00:00:00 | 02:13:59 | 00:00:00 | |
| DM0DOS-11 | 2026-09-01 12:30:45 | 56.63147 | 4.14918 | 37° | 15km/h | 20053m | 5.1m/s | 0°C | 0% | 0hPa | 2.5V | 00:00:00 | 02:13:49 | 00:00:00 | |
| DL1XH-west | 2026-09-01 12:30:44 | 56.63159 | 4.14932 | 30° | 16km/h | 20074m | 4.2m/s | -48.6°C | 0.3% | 57.2hPa | 2.5V | 18:12:15 | 02:13:53 | 00:00:00 | |
| DL1XH-west | 2026-09-01 12:30:33 | 56.63132 | 4.14892 | 73° | 9km/h | 20018m | 5.9m/s | -48.7°C | 0.3% | 57.7hPa | 2.5V | 18:12:15 | 02:13:42 | 00:00:00 | |
| DM0DOS-11 | 2026-09-01 12:30:32 | 56.63132 | 4.14879 | 82° | 13km/h | 20003m | 5.8m/s | 0°C | 0% | 0hPa | 2.6V | 00:00:00 | 02:13:39 | 00:00:00 | |
| DJ2DS-15 | 2026-09-01 12:30:30 | 56.63132 | 4.14879 | 82° | 13km/h | 20003m | 5.9m/s | -48.5°C | 1.0% | 57.8hPa | 2.6V | 00:00:00 | 00:00:00 | 00:00:00 | |
| DM0DOS-11 | 2026-09-01 12:30:25 | 56.63123 | 4.14801 | 75° | 13km/h | 19947m | 4.8m/s | 0°C | 0% | 0hPa | 2.6V | 00:00:00 | 02:13:28 | 00:00:00 | |
| DL1XH-west | 2026-09-01 12:30:23 | 56.63124 | 4.14814 | 84° | 15km/h | 19956m | 4.7m/s | -48.2°C | 0.3% | 58.2hPa | 2.5V | 18:12:15 | 02:13:30 | 00:00:00 | |
| DL1XH-west | 2026-09-01 12:30:12 | 56.63117 | 4.14744 | 81° | 18km/h | 19908m | 6m/s | -48°C | 0.2% | 58.6hPa | 2.6V | 18:12:15 | 02:13:20 | 00:00:00 | |
| DM0DOS-11 | 2026-09-01 12:30:07 | 56.63110 | 4.14665 | 84° | 22km/h | 19861m | 5.7m/s | 0°C | 0% | 0hPa | 2.6V | 00:00:00 | 02:13:11 | 00:00:00 | |
| DL1XH-west | 2026-09-01 12:30:01 | 56.63109 | 4.14646 | 89° | 20km/h | 19852m | 4.3m/s | -48.2°C | 0.3% | 59.2hPa | 2.6V | 18:12:15 | 02:13:09 | 00:00:00 | |
| DL1XH-west | 2026-09-01 12:29:49 | 56.63108 | 4.14515 | 81° | 31km/h | 19796m | 5.9m/s | -48°C | 0.2% | 59.7hPa | 2.6V | 18:12:15 | 02:12:58 | 00:00:00 | |
| DL1XH-west | 2026-09-01 12:29:39 | 56.63093 | 4.14356 | 85° | 33km/h | 19742m | 4.2m/s | -47.6°C | 0.2% | 60.2hPa | 2.6V | 18:12:15 | 02:12:47 | 00:00:00 | |
| DL1XH-west | 2026-09-01 12:29:28 | 56.63082 | 4.14222 | 79° | 31km/h | 19692m | 4.2m/s | -47.5°C | 0.1% | 60.6hPa | 2.5V | 18:12:15 | 02:12:37 | 00:00:00 | |
| DL1XH-west | 2026-09-01 12:29:18 | 56.63068 | 4.14089 | 73° | 24km/h | 19637m | 3.9m/s | -47.6°C | 0.2% | 61.1hPa | 2.6V | 18:12:15 | 02:12:26 | 00:00:00 | |
| DL1XH-west | 2026-09-01 12:29:07 | 56.63051 | 4.13972 | 73° | 26km/h | 19584m | 4.9m/s | -48.1°C | 0.3% | 61.6hPa | 2.6V | 18:12:15 | 02:12:15 | 00:00:00 | |
| DL1XH-west | 2026-09-01 12:28:56 | 56.63024 | 4.13884 | 63° | 24km/h | 19528m | 3.8m/s | -47.9°C | 0.1% | 62.1hPa | 2.6V | 18:12:15 | 02:12:04 | 00:00:00 | |
| DL1XH-west | 2026-09-01 12:28:46 | 56.63013 | 4.13806 | 84° | 24km/h | 19481m | 4.1m/s | -48.1°C | 0.1% | 62.6hPa | 2.5V | 18:12:15 | 02:11:54 | 00:00:00 | |
| DL1XH-west | 2026-09-01 12:28:36 | 56.63000 | 4.13688 | 83° | 27km/h | 19429m | 4.2m/s | -48.9°C | 0.2% | 63.1hPa | 2.5V | 18:12:15 | 02:11:44 | 00:00:00 | |
| DL1XH-west | 2026-09-01 12:28:26 | 56.62967 | 4.13529 | 64° | 40km/h | 19376m | 3.9m/s | -49.2°C | 0.3% | 63.6hPa | 2.6V | 18:12:15 | 02:11:33 | 00:00:00 | |
| DL1XH-west | 2026-09-01 12:28:15 | 56.62930 | 4.13358 | 61° | 46km/h | 19328m | 4.7m/s | -49.5°C | 0.4% | 64hPa | 2.5V | 18:12:15 | 02:11:23 | 00:00:00 | |
| DL1XH-west | 2026-09-01 12:28:05 | 56.62874 | 4.13212 | 55° | 40km/h | 19278m | 4m/s | -49.2°C | 0.4% | 64.5hPa | 2.5V | 18:12:15 | 02:11:13 | 00:00:00 | |
| DL1XH-west | 2026-09-01 12:27:54 | 56.62813 | 4.13046 | 51° | 31km/h | 19223m | 4.4m/s | -48.9°C | 0.3% | 65.1hPa | 2.6V | 18:12:15 | 02:11:02 | 00:00:00 | |
| DL1XH-west | 2026-09-01 12:27:42 | 56.62761 | 4.12902 | 60° | 35km/h | 19170m | 5.4m/s | -48.9°C | 0.3% | 65.6hPa | 2.6V | 18:12:15 | 02:10:51 | 00:00:00 | |
| DL1XH-west | 2026-09-01 12:27:32 | 56.62715 | 4.12773 | 48° | 37km/h | 19120m | 5.9m/s | -48.8°C | 0.2% | 66.1hPa | 2.6V | 18:12:15 | 02:10:41 | 00:00:00 | |
| DL1XH-west | 2026-09-01 12:27:21 | 56.62652 | 4.12666 | 49° | 31km/h | 19066m | 4m/s | -48.6°C | 0.2% | 66.7hPa | 2.6V | 18:12:15 | 02:10:30 | 00:00:00 | |
| DL1XH-west | 2026-09-01 12:27:11 | 56.62593 | 4.12565 | 43° | 27km/h | 19010m | 4.8m/s | -48.7°C | 0.3% | 67.2hPa | 2.5V | 18:12:15 | 02:10:19 | 00:00:00 | |
| DL1XH-west | 2026-09-01 12:26:59 | 56.62532 | 4.12483 | 36° | 27km/h | 18955m | 4.7m/s | -49°C | 0.3% | 67.8hPa | 2.5V | 18:12:15 | 02:10:08 | 00:00:00 | |
| DL1XH-west | 2026-09-01 12:26:49 | 56.62480 | 4.12411 | 45° | 22km/h | 18900m | 5.6m/s | -48.5°C | 0.3% | 68.4hPa | 2.5V | 18:12:15 | 02:09:57 | 00:00:00 | |
| DL1XH-west | 2026-09-01 12:26:37 | 56.62438 | 4.12338 | 35° | 18km/h | 18846m | 4.4m/s | -48.3°C | 0.2% | 68.9hPa | 2.5V | 18:12:15 | 02:09:46 | 00:00:00 | |
| DL1XH-west | 2026-09-01 12:26:28 | 56.62401 | 4.12262 | 49° | 22km/h | 18798m | 5.7m/s | -48.2°C | 0.2% | 69.4hPa | 2.6V | 18:12:15 | 02:09:36 | 00:00:00 | |
| DL1XH-west | 2026-09-01 12:26:17 | 56.62370 | 4.12190 | 64° | 20km/h | 18749m | 5.5m/s | -48.2°C | 0.1% | 69.9hPa | 2.6V | 18:12:15 | 02:09:26 | 00:00:00 | |
| DL1XH-west | 2026-09-01 12:26:07 | 56.62344 | 4.12106 | 69° | 22km/h | 18696m | 4.5m/s | -48.2°C | 0.2% | 70.5hPa | 2.6V | 18:12:15 | 02:09:15 | 00:00:00 | |
| DL1XH-west | 2026-09-01 12:25:55 | 56.62318 | 4.12006 | 54° | 24km/h | 18641m | 4.3m/s | -48.2°C | 0.3% | 71.1hPa | 2.5V | 18:12:15 | 02:09:04 | 00:00:00 | |
| DL1XH-west | 2026-09-01 12:25:45 | 56.62293 | 4.11912 | 58° | 29km/h | 18592m | 5.5m/s | -48.1°C | 0.1% | 71.7hPa | 2.5V | 18:12:15 | 02:08:54 | 00:00:00 | |
| DL1XH-west | 2026-09-01 12:25:35 | 56.62263 | 4.11811 | 61° | 29km/h | 18543m | 5m/s | -48.1°C | 0.2% | 72.2hPa | 2.5V | 18:12:15 | 02:08:44 | 00:00:00 | |
| DL1XH-west | 2026-09-01 12:25:25 | 56.62228 | 4.11669 | 64° | 22km/h | 18486m | 3.3m/s | -48.7°C | 0.3% | 72.9hPa | 2.5V | 18:12:15 | 02:08:32 | 00:00:00 | |
| DL1XH-west | 2026-09-01 12:25:14 | 56.62205 | 4.11498 | 74° | 37km/h | 18438m | 4.1m/s | -48.5°C | 0.3% | 73.3hPa | 2.5V | 18:12:15 | 02:08:22 | 00:00:00 | |
| DL1XH-west | 2026-09-01 12:25:03 | 56.62179 | 4.11304 | 81° | 40km/h | 18384m | 4.9m/s | -48.7°C | 0.2% | 74hPa | 2.5V | 18:12:15 | 02:08:11 | 00:00:00 | |
| DL1XH-west | 2026-09-01 12:24:52 | 56.62151 | 4.11138 | 72° | 35km/h | 18329m | 5.4m/s | -48.8°C | 0.2% | 74.6hPa | 2.6V | 18:12:15 | 02:08:00 | 00:00:00 | |
| DL1XH-west | 2026-09-01 12:24:42 | 56.62130 | 4.11006 | 64° | 29km/h | 18287m | 5.2m/s | -48.8°C | 0.2% | 75hPa | 2.6V | 18:12:15 | 02:07:51 | 00:00:00 | |
| DL1XH-west | 2026-09-01 12:24:32 | 56.62100 | 4.10863 | 75° | 29km/h | 18230m | 4.5m/s | -48.7°C | 0.2% | 75.8hPa | 2.6V | 18:12:15 | 02:07:39 | 00:00:00 | |
| DL1XH-west | 2026-09-01 12:24:21 | 56.62085 | 4.10733 | 79° | 31km/h | 18180m | 5m/s | -48.5°C | 0.2% | 76.3hPa | 2.5V | 18:12:15 | 02:07:29 | 00:00:00 | |
| DL1XH-west | 2026-09-01 12:24:11 | 56.62063 | 4.10585 | 78° | 37km/h | 18132m | 4.7m/s | -48.3°C | 0.3% | 76.9hPa | 2.6V | 18:12:15 | 02:07:19 | 00:00:00 | |
| DL1XH-west | 2026-09-01 12:24:01 | 56.62043 | 4.10438 | 76° | 33km/h | 18088m | 4.3m/s | -48.4°C | 0.2% | 77.4hPa | 2.5V | 18:12:15 | 02:07:10 | 00:00:00 | |
| DL1XH-west | 2026-09-01 12:23:51 | 56.62021 | 4.10271 | 67° | 37km/h | 18041m | 4.7m/s | -48.4°C | 0.2% | 77.9hPa | 2.6V | 18:12:15 | 02:07:00 | 00:00:00 | |
| DL1XH-west | 2026-09-01 12:23:41 | 56.61998 | 4.10087 | 82° | 40km/h | 17994m | 5m/s | -48.4°C | 0.2% | 78.5hPa | 2.5V | 18:12:15 | 02:06:50 | 00:00:00 | |
| DL1XH-west | 2026-09-01 12:23:30 | 56.61962 | 4.09895 | 77° | 44km/h | 17942m | 4.2m/s | -48.7°C | 0.2% | 79.1hPa | 2.5V | 18:12:15 | 02:06:39 | 00:00:00 | |
| DL1XH-west | 2026-09-01 12:23:20 | 56.61921 | 4.09679 | 69° | 44km/h | 17889m | 5.1m/s | -48.7°C | 0.3% | 79.7hPa | 2.5V | 18:12:15 | 02:06:28 | 00:00:00 | |
| DL1XH-west | 2026-09-01 12:23:09 | 56.61882 | 4.09502 | 62° | 40km/h | 17835m | 4.4m/s | -48.8°C | 0.3% | 80.4hPa | 2.5V | 18:12:15 | 02:06:17 | 00:00:00 | |
| DL1XH-west | 2026-09-01 12:22:58 | 56.61844 | 4.09351 | 48° | 26km/h | 17781m | 4m/s | -48.4°C | 0.3% | 81.1hPa | 2.5V | 18:12:15 | 02:06:06 | 00:00:00 | |
| DL1XH-west | 2026-09-01 12:22:46 | 56.61808 | 4.09238 | 64° | 22km/h | 17726m | 5.4m/s | -48°C | 0.1% | 81.7hPa | 2.6V | 18:12:15 | 02:05:55 | 00:00:00 | |
| DL1XH-west | 2026-09-01 12:22:36 | 56.61778 | 4.09147 | 65° | 27km/h | 17676m | 5m/s | -47.8°C | 0.2% | 82.4hPa | 2.5V | 18:12:15 | 02:05:45 | 00:00:00 | |
| DL1XH-west | 2026-09-01 12:22:26 | 56.61751 | 4.09050 | 79° | 27km/h | 17623m | 4.6m/s | -47.5°C | 0.1% | 83hPa | 2.6V | 18:12:15 | 02:05:34 | 00:00:00 | |
| DL1XH-west | 2026-09-01 12:22:16 | 56.61728 | 4.08944 | 68° | 22km/h | 17573m | 3.9m/s | -47.3°C | 0.1% | 83.7hPa | 2.6V | 18:12:15 | 02:05:23 | 00:00:00 | |
| DL1XH-west | 2026-09-01 12:22:04 | 56.61702 | 4.08834 | 72° | 26km/h | 17526m | 3.7m/s | -47.2°C | 0% | 84.2hPa | 2.6V | 18:12:15 | 02:05:13 | 00:00:00 | |
| DL1XH-west | 2026-09-01 12:21:54 | 56.61679 | 4.08686 | 78° | 27km/h | 17474m | 4.7m/s | -47.1°C | 0% | 85hPa | 2.6V | 18:12:15 | 02:05:02 | 00:00:00 | |
| DL1XH-west | 2026-09-01 12:21:43 | 56.61657 | 4.08536 | 79° | 31km/h | 17424m | 5m/s | -47.6°C | 0.1% | 85.6hPa | 2.6V | 18:12:15 | 02:04:51 | 00:00:00 | |
| DL1XH-west | 2026-09-01 12:21:32 | 56.61637 | 4.08335 | 75° | 40km/h | 17371m | 4.4m/s | -47.7°C | 0.1% | 86.3hPa | 2.6V | 18:12:15 | 02:04:40 | 00:00:00 | |
| DL1XH-west | 2026-09-01 12:21:22 | 56.61613 | 4.08166 | 75° | 49km/h | 17323m | 4.9m/s | -47.6°C | 0.1% | 86.9hPa | 2.6V | 18:12:15 | 02:04:30 | 00:00:00 | |
| DL1XH-west | 2026-09-01 12:21:11 | 56.61580 | 4.07972 | 74° | 42km/h | 17276m | 3.9m/s | -47.7°C | 0.1% | 87.5hPa | 2.6V | 18:12:15 | 02:04:20 | 00:00:00 | |
| DL1XH-west | 2026-09-01 12:21:01 | 56.61557 | 4.07762 | 75° | 42km/h | 17223m | 6.1m/s | -47.8°C | 0.1% | 88.2hPa | 2.6V | 18:12:15 | 02:04:09 | 00:00:00 | |
| DL1XH-west | 2026-09-01 12:20:50 | 56.61536 | 4.07537 | 76° | 46km/h | 17170m | 4.6m/s | -48.1°C | 0.2% | 89hPa | 2.6V | 18:12:15 | 02:03:58 | 00:00:00 | |
| DL1XH-west | 2026-09-01 12:20:40 | 56.61505 | 4.07376 | 70° | 42km/h | 17128m | 4m/s | -48.2°C | 0.2% | 89.5hPa | 2.6V | 18:12:15 | 02:03:49 | 00:00:00 | |
| DL1XH-west | 2026-09-01 12:20:30 | 56.61478 | 4.07169 | 78° | 47km/h | 17079m | 4.8m/s | -48.6°C | 0.2% | 90.2hPa | 2.5V | 18:12:15 | 02:03:39 | 00:00:00 | |
| DL1XH-west | 2026-09-01 12:20:19 | 56.61445 | 4.06919 | 74° | 53km/h | 17027m | 3.6m/s | -48.3°C | 0.2% | 90.9hPa | 2.6V | 18:12:15 | 02:03:28 | 00:00:00 | |
| DL1XH-west | 2026-09-01 12:20:08 | 56.61393 | 4.06646 | 68° | 55km/h | 16973m | 3.9m/s | -48.2°C | 0.2% | 91.7hPa | 2.6V | 18:12:15 | 02:03:16 | 00:00:00 | |
| DL1XH-west | 2026-09-01 12:19:57 | 56.61338 | 4.06422 | 65° | 55km/h | 16926m | 4.4m/s | -48.1°C | 0.2% | 92.3hPa | 2.5V | 18:12:15 | 02:03:06 | 00:00:00 | |
| DL1XH-west | 2026-09-01 12:19:46 | 56.61271 | 4.06208 | 50° | 47km/h | 16873m | 4.3m/s | -48.2°C | 0.2% | 93.1hPa | 2.6V | 18:12:15 | 02:02:55 | 00:00:00 | |
| DL1XH-west | 2026-09-01 12:19:36 | 56.61191 | 4.06021 | 48° | 42km/h | 16821m | 5.1m/s | -48.5°C | 0.3% | 93.9hPa | 2.5V | 18:12:15 | 02:02:44 | 00:00:00 | |
| DL1XH-west | 2026-09-01 12:19:24 | 56.61108 | 4.05867 | 46° | 40km/h | 16767m | 4.8m/s | -48.2°C | 0.2% | 94.6hPa | 2.5V | 18:12:15 | 02:02:33 | 00:00:00 | |
| DL1XH-west | 2026-09-01 12:19:14 | 56.61040 | 4.05696 | 56° | 42km/h | 16715m | 4.1m/s | -48.2°C | 0.2% | 95.3hPa | 2.6V | 18:12:15 | 02:02:22 | 00:00:00 | |
| DL1XH-west | 2026-09-01 12:19:04 | 56.60980 | 4.05520 | 63° | 44km/h | 16668m | 4.5m/s | -48.2°C | 0.1% | 96hPa | 2.5V | 18:12:15 | 02:02:12 | 00:00:00 | |
| DL1XH-west | 2026-09-01 12:18:52 | 56.60923 | 4.05316 | 63° | 47km/h | 16616m | 4m/s | -48.3°C | 0.2% | 96.8hPa | 2.6V | 18:12:15 | 02:02:01 | 00:00:00 | |
| DL1XH-west | 2026-09-01 12:18:42 | 56.60879 | 4.05105 | 72° | 38km/h | 16564m | 3.8m/s | -48.5°C | 0.1% | 97.6hPa | 2.6V | 18:12:15 | 02:01:50 | 00:00:00 | |
| DL1XH-west | 2026-09-01 12:18:31 | 56.60851 | 4.04937 | 68° | 35km/h | 16517m | 4.4m/s | -48.8°C | 0.1% | 98.3hPa | 2.5V | 18:12:15 | 02:01:40 | 00:00:00 | |
| DL1XH-west | 2026-09-01 12:18:21 | 56.60813 | 4.04776 | 58° | 40km/h | 16466m | 3.4m/s | -49.1°C | 0.2% | 99hPa | 2.6V | 18:12:15 | 02:01:29 | 00:00:00 | |
| DL1XH-west | 2026-09-01 12:18:11 | 56.60766 | 4.04647 | 60° | 33km/h | 16419m | 5.1m/s | -49.4°C | 0.3% | 99.7hPa | 2.5V | 18:12:15 | 02:01:19 | 00:00:00 | |
| DL1XH-west | 2026-09-01 12:18:00 | 56.60737 | 4.04499 | 69° | 33km/h | 16372m | 4.1m/s | -49.1°C | 0.3% | 100.5hPa | 2.5V | 18:12:15 | 02:01:09 | 00:00:00 | |
| DL1XH-west | 2026-09-01 12:17:50 | 56.60696 | 4.04328 | 76° | 38km/h | 16321m | 4m/s | -48.8°C | 0.2% | 101.2hPa | 2.5V | 18:12:15 | 02:00:58 | 00:00:00 | |
| DL1XH-west | 2026-09-01 12:17:39 | 56.60669 | 4.04130 | 82° | 46km/h | 16272m | 4m/s | -49.2°C | 0.3% | 102hPa | 2.5V | 18:12:15 | 02:00:47 | 00:00:00 | |
| DL1XH-west | 2026-09-01 12:17:28 | 56.60642 | 4.03875 | 79° | 51km/h | 16215m | 4.7m/s | -49.4°C | 0.3% | 102.9hPa | 2.6V | 18:12:15 | 02:00:35 | 00:00:00 | |
| DL1XH-west | 2026-09-01 12:17:18 | 56.60613 | 4.03641 | 76° | 44km/h | 16166m | 3.8m/s | -49.2°C | 0.3% | 103.7hPa | 2.6V | 18:12:15 | 02:00:24 | 00:00:00 | |
| DL1XH-west | 2026-09-01 12:17:07 | 56.60580 | 4.03454 | 65° | 42km/h | 16120m | 5.1m/s | -49.3°C | 0.3% | 104.4hPa | 2.6V | 18:12:15 | 02:00:14 | 00:00:00 | |
| DL1XH-west | 2026-09-01 12:16:55 | 56.60528 | 4.03271 | 56° | 44km/h | 16071m | 3.6m/s | -49.4°C | 0.3% | 105.2hPa | 2.5V | 18:12:15 | 02:00:03 | 00:00:00 | |
| DL1XH-west | 2026-09-01 12:16:44 | 56.60476 | 4.03100 | 70° | 38km/h | 16019m | 5.4m/s | -49.3°C | 0.3% | 106hPa | 2.6V | 18:12:15 | 01:59:52 | 00:00:00 | |
| DL1XH-west | 2026-09-01 12:16:34 | 56.60441 | 4.02924 | 70° | 37km/h | 15968m | 5.4m/s | -49.7°C | 0.3% | 106.8hPa | 2.6V | 18:12:15 | 01:59:41 | 00:00:00 | |
| DL1XH-west | 2026-09-01 12:16:22 | 56.60424 | 4.02703 | 81° | 42km/h | 15911m | 5.1m/s | -50°C | 0.4% | 107.8hPa | 2.5V | 18:12:15 | 01:59:29 | 00:00:00 | |
| DL1XH-west | 2026-09-01 12:16:09 | 56.60407 | 4.02483 | 73° | 42km/h | 15859m | 5.1m/s | -50.3°C | 0.6% | 108.7hPa | 2.5V | 18:12:15 | 01:59:18 | 00:00:00 | |
| DL1XH-west | 2026-09-01 12:15:59 | 56.60359 | 4.02238 | 68° | 46km/h | 15801m | 4.4m/s | -50°C | 0.5% | 109.6hPa | 2.6V | 18:12:15 | 01:59:05 | 00:00:00 | |
| DL1XH-west | 2026-09-01 12:15:46 | 56.60322 | 4.02032 | 73° | 42km/h | 15751m | 4m/s | -50.3°C | 0.6% | 110.5hPa | 2.6V | 18:12:15 | 01:58:54 | 00:00:00 | |
| DL1XH-west | 2026-09-01 12:15:35 | 56.60289 | 4.01848 | 74° | 44km/h | 15705m | 5.1m/s | -50.7°C | 0.6% | 111.3hPa | 2.6V | 18:12:15 | 01:58:44 | 00:00:00 | |
| DL1XH-west | 2026-09-01 12:15:25 | 56.60258 | 4.01625 | 87° | 42km/h | 15654m | 4.1m/s | -50.6°C | 0.7% | 112.2hPa | 2.6V | 18:12:15 | 01:58:33 | 00:00:00 | |
| DL1XH-west | 2026-09-01 12:15:14 | 56.60252 | 4.01397 | 92° | 49km/h | 15603m | 4.3m/s | -50.4°C | 0.7% | 113hPa | 2.5V | 18:12:15 | 01:58:22 | 00:00:00 | |
| DL1XH-west | 2026-09-01 12:15:03 | 56.60240 | 4.01142 | 84° | 51km/h | 15551m | 3.8m/s | -50.4°C | 0.8% | 113.9hPa | 2.6V | 18:12:15 | 01:58:11 | 00:00:00 | |
| DL1XH-west | 2026-09-01 12:14:51 | 56.60220 | 4.00884 | 84° | 55km/h | 15499m | 3.7m/s | -50.4°C | 0.7% | 114.9hPa | 2.5V | 18:12:15 | 01:58:00 | 00:00:00 | |
| DL1XH-west | 2026-09-01 12:14:41 | 56.60199 | 4.00645 | 75° | 51km/h | 15453m | 5m/s | -50.1°C | 0.8% | 115.7hPa | 2.6V | 18:12:15 | 01:57:50 | 00:00:00 | |
| DL1XH-west | 2026-09-01 12:14:30 | 56.60169 | 4.00401 | 77° | 49km/h | 15401m | 4.8m/s | -49.9°C | 0.7% | 116.6hPa | 2.5V | 18:12:15 | 01:57:39 | 00:00:00 | |
| DL1XH-west | 2026-09-01 12:14:20 | 56.60141 | 4.00187 | 73° | 49km/h | 15356m | 3.9m/s | -49.9°C | 0.7% | 117.4hPa | 2.6V | 18:12:15 | 01:57:29 | 00:00:00 | |
| DL1XH-west | 2026-09-01 12:14:09 | 56.60101 | 3.99966 | 67° | 49km/h | 15303m | 4.1m/s | -50°C | 0.7% | 118.3hPa | 2.5V | 18:12:15 | 01:57:18 | 00:00:00 | |
| DL1XH-west | 2026-09-01 12:13:59 | 56.60054 | 3.99763 | 70° | 47km/h | 15256m | 5m/s | -49.6°C | 0.6% | 119.2hPa | 2.6V | 18:12:15 | 01:57:08 | 00:00:00 | |
| DL1XH-west | 2026-09-01 12:13:48 | 56.60009 | 3.99533 | 72° | 51km/h | 15206m | 4m/s | -49.5°C | 0.6% | 120.2hPa | 2.5V | 18:12:15 | 01:56:57 | 00:00:00 | |
| DL1XH-west | 2026-09-01 12:13:39 | 56.59976 | 3.99312 | 76° | 51km/h | 15160m | 4.5m/s | -49.8°C | 0.6% | 121hPa | 2.6V | 18:12:15 | 01:56:47 | 00:00:00 | |
| DL1XH-west | 2026-09-01 12:13:27 | 56.59935 | 3.99046 | 72° | 58km/h | 15106m | 4.4m/s | -49.7°C | 0.6% | 122hPa | 2.5V | 18:12:15 | 01:56:36 | 00:00:00 | |
| DL1XH-west | 2026-09-01 12:13:17 | 56.59889 | 3.98797 | 71° | 57km/h | 15061m | 3.4m/s | -49.5°C | 0.6% | 122.8hPa | 2.6V | 18:12:15 | 01:56:26 | 00:00:00 | |
| DL1XH-west | 2026-09-01 12:13:06 | 56.59825 | 3.98527 | 68° | 53km/h | 15005m | 3.8m/s | -49.2°C | 0.5% | 123.9hPa | 2.5V | 18:12:15 | 01:56:14 | 00:00:00 | |
| DL1XH-west | 2026-09-01 12:12:54 | 56.59767 | 3.98292 | 62° | 46km/h | 14954m | 4.4m/s | -49.1°C | 0.5% | 124.9hPa | 2.5V | 18:12:15 | 01:56:03 | 00:00:00 | |
| DL1XH-west | 2026-09-01 12:12:44 | 56.59701 | 3.98081 | 62° | 40km/h | 14904m | 4m/s | -48.9°C | 0.5% | 125.8hPa | 2.6V | 18:12:15 | 01:55:52 | 00:00:00 | |
| DL1XH-west | 2026-09-01 12:12:33 | 56.59652 | 3.97913 | 59° | 44km/h | 14858m | 5m/s | -48.9°C | 0.5% | 126.7hPa | 2.5V | 18:12:15 | 01:55:42 | 00:00:00 | |
| DL1XH-west | 2026-09-01 12:12:23 | 56.59610 | 3.97750 | 66° | 35km/h | 14813m | 4.1m/s | -48.9°C | 0.5% | 127.6hPa | 2.6V | 18:12:15 | 01:55:32 | 00:00:00 | |
| DL1XH-west | 2026-09-01 12:12:12 | 56.59582 | 3.97587 | 75° | 35km/h | 14763m | 4.3m/s | -48.7°C | 0.5% | 128.6hPa | 2.5V | 18:12:15 | 01:55:21 | 00:00:00 | |
| DL1XH-west | 2026-09-01 12:12:03 | 56.59561 | 3.97435 | 76° | 37km/h | 14718m | 3.6m/s | -48.7°C | 0.5% | 129.4hPa | 2.6V | 18:12:15 | 01:55:11 | 00:00:00 | |
| DL1XH-west | 2026-09-01 12:11:52 | 56.59501 | 3.97121 | 74° | 46km/h | 14640m | 4.2m/s | -48.3°C | 0.5% | 131hPa | 2.7V | 18:12:15 | 01:54:54 | 00:00:00 | |
| DL1XH-west | 2026-09-01 12:11:40 | 56.59481 | 3.96982 | 75° | 42km/h | 14608m | 4.8m/s | -48.5°C | 0.5% | 131.6hPa | 2.6V | 18:12:15 | 01:54:47 | 00:00:00 | |
| DL1XH-west | 2026-09-01 12:11:28 | 56.59460 | 3.96735 | 75° | 49km/h | 14552m | 2.9m/s | -48.5°C | 0.5% | 132.8hPa | 2.6V | 18:12:15 | 01:54:35 | 00:00:00 | |
| DL1XH-west | 2026-09-01 12:11:18 | 56.59430 | 3.96493 | 80° | 46km/h | 14499m | 3.1m/s | -49°C | 0.6% | 133.9hPa | 2.6V | 18:12:15 | 01:54:23 | 00:00:00 | |
| DJ2DS-15 | 2026-09-01 12:11:17 | 56.59434 | 3.96556 | 83° | 46km/h | 14513m | 5.2m/s | -48.9°C | 3.7% | 133.5hPa | 2.7V | 00:00:00 | 01:54:26 | 00:00:00 | |
| DL1XH-west | 2026-09-01 12:11:06 | 56.59378 | 3.96156 | 75° | 46km/h | 14423m | 4.5m/s | -48.7°C | 0.6% | 135.4hPa | 2.7V | 18:12:15 | 01:54:06 | 00:00:00 | |
| DL1XH-west | 2026-09-01 12:10:57 | 56.59372 | 3.96116 | 77° | 47km/h | 14415m | 5.2m/s | -48.7°C | 0.6% | 135.6hPa | 2.5V | 18:12:15 | 01:54:04 | 00:00:00 | |
| DL1XH-west | 2026-09-01 12:10:45 | 56.59348 | 3.95831 | 81° | 49km/h | 14355m | 4.8m/s | -48.9°C | 0.6% | 136.8hPa | 2.7V | 18:12:15 | 01:53:51 | 00:00:00 | |
| DL1XH-west | 2026-09-01 12:10:35 | 56.59328 | 3.95592 | 76° | 40km/h | 14302m | 4.8m/s | -48.7°C | 0.6% | 138hPa | 2.7V | 18:12:15 | 01:53:39 | 00:00:00 | |
| DL1XH-west | 2026-09-01 12:10:23 | 56.59301 | 3.95409 | 73° | 38km/h | 14258m | 2.9m/s | -48.9°C | 0.6% | 138.9hPa | 2.7V | 18:12:15 | 01:53:29 | 00:00:00 | |
| DL1XH-west | 2026-09-01 12:10:13 | 56.59279 | 3.95122 | 82° | 40km/h | 14182m | 2.3m/s | -48.5°C | 0.5% | 140.5hPa | 2.7V | 18:12:15 | 01:53:13 | 00:00:00 | |
| DL1XH-west | 2026-09-01 12:09:57 | 56.59271 | 3.94958 | 90° | 44km/h | 14144m | 4.1m/s | -48.3°C | 0.4% | 141.2hPa | 2.6V | 18:12:15 | 01:53:05 | 00:00:00 | |
| DL1XH-west | 2026-09-01 12:09:46 | 56.59272 | 3.94744 | 95° | 49km/h | 14098m | 4.6m/s | -48.6°C | 0.4% | 142.3hPa | 2.6V | 18:12:15 | 01:52:55 | 00:00:00 | |
| DL1XH-west | 2026-09-01 12:09:36 | 56.59284 | 3.94477 | 88° | 51km/h | 14049m | 4.3m/s | -48.3°C | 0.5% | 143.3hPa | 2.6V | 18:12:15 | 01:52:44 | 00:00:00 | |
| DL1XH-west | 2026-09-01 12:09:25 | 56.59281 | 3.94226 | 88° | 47km/h | 14000m | 4.3m/s | -48.1°C | 0.3% | 144.5hPa | 2.6V | 18:12:15 | 01:52:33 | 00:00:00 | |
| DL1XH-west | 2026-09-01 12:09:14 | 56.59269 | 3.93960 | 84° | 49km/h | 13946m | 3.6m/s | -47.8°C | 0.4% | 145.7hPa | 2.7V | 18:12:15 | 01:52:21 | 00:00:00 | |
| DL1XH-west | 2026-09-01 12:09:04 | 56.59250 | 3.93785 | 82° | 49km/h | 13910m | 4.5m/s | -47.6°C | 0.4% | 146.4hPa | 2.6V | 18:12:15 | 01:52:13 | 00:00:00 | |
| DL1XH-west | 2026-09-01 12:08:54 | 56.59230 | 3.93564 | 79° | 49km/h | 13866m | 4.3m/s | -47.4°C | 0.3% | 147.4hPa | 2.6V | 18:12:15 | 01:52:03 | 00:00:00 | |
| DJ2DS-15 | 2026-09-01 12:08:51 | 56.59223 | 3.93495 | 78° | 49km/h | 13852m | 4.4m/s | -47.4°C | 1.2% | 147.7hPa | 2.6V | 00:00:00 | 00:00:00 | 00:00:00 | |
| DL1XH-west | 2026-09-01 12:08:44 | 56.59196 | 3.93317 | 72° | 49km/h | 13816m | 4.8m/s | -47.3°C | 0.4% | 148.6hPa | 2.6V | 18:12:15 | 01:51:52 | 00:00:00 | |
| DL1XH-west | 2026-09-01 12:08:34 | 56.59157 | 3.93066 | 72° | 55km/h | 13769m | 3.9m/s | -47.5°C | 0.4% | 149.6hPa | 2.6V | 18:12:15 | 01:51:41 | 00:00:00 | |
| DL1XH-west | 2026-09-01 12:08:23 | 56.59096 | 3.92736 | 75° | 53km/h | 13708m | 3.7m/s | -47.4°C | 0.4% | 151.1hPa | 2.7V | 18:12:15 | 01:51:27 | 00:00:00 | |
| DL1XH-west | 2026-09-01 12:08:12 | 56.59072 | 3.92570 | 77° | 53km/h | 13676m | 4.8m/s | -47.5°C | 0.4% | 151.7hPa | 2.7V | 18:12:15 | 01:51:20 | 00:00:00 | |
| DL1XH-west | 2026-09-01 12:08:01 | 56.59046 | 3.92315 | 81° | 58km/h | 13629m | 5.4m/s | -47.7°C | 0.3% | 152.8hPa | 2.6V | 18:12:15 | 01:51:10 | 00:00:00 | |
| DL1XH-west | 2026-09-01 12:07:51 | 56.59003 | 3.91958 | 77° | 60km/h | 13565m | 4.6m/s | -48.2°C | 0.5% | 154.3hPa | 2.6V | 18:12:15 | 01:50:56 | 00:00:00 | |
| DL1XH-west | 2026-09-01 12:07:40 | 56.58978 | 3.91765 | 76° | 68km/h | 13533m | 4m/s | -48°C | 0.4% | 155hPa | 2.6V | 18:12:15 | 01:50:49 | 00:00:00 | |
| DL1XH-west | 2026-09-01 12:07:35 | 56.58930 | 3.91454 | 72° | 69km/h | 13488m | 4.5m/s | -48.2°C | 0.4% | 156.1hPa | 2.7V | 18:12:15 | 01:50:39 | 00:00:00 | |
| DL1XH-west | 2026-09-01 12:07:19 | 56.58865 | 3.91105 | 69° | 71km/h | 13437m | 4.3m/s | -48.5°C | 0.5% | 157.3hPa | 2.6V | 18:12:15 | 01:50:28 | 00:00:00 | |
| DL1XH-west | 2026-09-01 12:07:09 | 56.58751 | 3.90584 | 65° | 75km/h | 13365m | 4.2m/s | -49.3°C | 0.6% | 159.1hPa | 2.7V | 18:12:15 | 01:50:12 | 00:00:00 | |
| DL1XH-west | 2026-09-01 12:06:53 | 56.58666 | 3.90250 | 67° | 68km/h | 13316m | 4.8m/s | -49.2°C | 0.7% | 160.3hPa | 2.6V | 18:12:15 | 01:50:01 | 00:00:00 | |
| DL1XH-west | 2026-09-01 12:06:43 | 56.58564 | 3.89809 | 70° | 64km/h | 13241m | 4m/s | -49°C | 0.7% | 162.1hPa | 2.7V | 18:12:15 | 01:49:45 | 00:00:00 | |
| DL1XH-west | 2026-09-01 12:06:27 | 56.58520 | 3.89574 | 72° | 64km/h | 13201m | 4.3m/s | -48.9°C | 0.7% | 163.1hPa | 2.6V | 18:12:15 | 01:49:36 | 00:00:00 | |
| DL1XH-west | 2026-09-01 12:06:17 | 56.58469 | 3.89299 | 72° | 57km/h | 13154m | 4.8m/s | -48.9°C | 0.7% | 164.3hPa | 2.6V | 18:12:15 | 01:49:25 | 00:00:00 | |
| DL1XH-west | 2026-09-01 12:06:07 | 56.58434 | 3.89055 | 79° | 53km/h | 13109m | 4.1m/s | -48.8°C | 0.8% | 0hPa | 2.6V | 18:12:15 | 01:49:15 | 00:00:00 | |
| DL1XH-west | 2026-09-01 12:05:55 | 56.58401 | 3.88795 | 75° | 49km/h | 13062m | 4.7m/s | -48.7°C | 0.7% | 0hPa | 2.6V | 18:12:15 | 01:49:04 | 00:00:00 | |
| DL1XH-west | 2026-09-01 12:05:45 | 56.58375 | 3.88571 | 80° | 49km/h | 13019m | 3.4m/s | 0°C | 0% | 0hPa | 2.6V | 18:12:15 | 01:48:54 | 00:00:00 | |
| DL1XH-west | 2026-09-01 12:05:34 | 56.58350 | 3.88308 | 76° | 57km/h | 12972m | 4.4m/s | 0°C | 0% | 0hPa | 2.7V | 18:12:15 | 01:48:43 | 00:00:00 | |
| DL1XH-west | 2026-09-01 12:05:23 | 56.58323 | 3.88031 | 82° | 57km/h | 12923m | 3.2m/s | 0°C | 0% | 0hPa | 2.6V | 18:12:15 | 01:48:32 | 00:00:00 | |
| DJ2DS-15 | 2026-09-01 12:05:17 | 56.58311 | 3.87871 | 81° | 62km/h | 12897m | 4.5m/s | -48.8°C | 3.7% | 170.8hPa | 2.6V | 00:00:00 | 01:48:26 | 00:00:00 | |
| DJ2DS-15 | 2026-09-01 12:04:57 | 56.58225 | 3.87319 | 70° | 66km/h | 12807m | 4.0m/s | -49.4°C | 3.9% | 173.1hPa | 2.6V | 00:00:00 | 01:48:06 | 08:30:00 | |
| DJ2DS-15 | 2026-09-01 12:04:37 | 56.58086 | 3.86767 | 66° | 58km/h | 12722m | 3.4m/s | -49.3°C | 4.0% | 175.5hPa | 2.6V | 00:00:00 | 01:47:46 | 00:00:00 | |
| DJ2DS-15 | 2026-09-01 12:04:17 | 56.57960 | 3.86284 | 66° | 51km/h | 12636m | 3.9m/s | -49.0°C | 4.0% | 177.8hPa | 2.6V | 00:00:00 | 01:47:26 | 00:00:00 | |
| DJ2DS-15 | 2026-09-01 12:03:57 | 56.57842 | 3.85870 | 68° | 47km/h | 12544m | 5.3m/s | -48.7°C | 3.9% | 180.3hPa | 2.6V | 00:00:00 | 01:47:06 | 00:00:00 | |
| DJ2DS-15 | 2026-09-01 12:03:37 | 56.57769 | 3.85454 | 79° | 55km/h | 12451m | 3.6m/s | -48.8°C | 4.1% | 182.8hPa | 2.6V | 00:00:00 | 01:46:46 | 00:00:00 | |
| DJ2DS-15 | 2026-09-01 12:03:27 | 56.57747 | 3.85199 | 85° | 53km/h | 12400m | 5.1m/s | -49.7°C | 2.1% | 184.3hPa | 2.6V | 00:00:00 | 00:00:00 | 00:00:00 | |
| DJ2DS-15 | 2026-09-01 12:03:17 | 56.57736 | 3.84953 | 84° | 64km/h | 12356m | 5.1m/s | -49.8°C | 4.6% | 185.4hPa | 2.6V | 00:00:00 | 01:46:26 | 00:00:00 | |
| DJ2DS-15 | 2026-09-01 12:02:55 | 56.57699 | 3.84306 | 85° | 68km/h | 12257m | 4.1m/s | -50.7°C | 5.4% | 188.4hPa | 2.6V | 00:00:00 | 01:46:04 | 00:00:00 | |
| DJ2DS-15 | 2026-09-01 12:02:35 | 56.57646 | 3.83688 | 79° | 64km/h | 12168m | 4.8m/s | 0°C | 0% | 0hPa | 0V | 00:00:00 | 01:45:44 | 00:00:00 | |
| DJ2DS-15 | 2026-09-01 12:02:15 | 56.57555 | 3.83126 | 70° | 66km/h | 12079m | 3.4m/s | 0°C | 0% | 0hPa | 0V | 00:00:00 | 01:45:24 | 00:00:00 | |
| DJ2DS-15 | 2026-09-01 12:01:38 | 56.57382 | 3.82249 | 82° | 53km/h | 11914m | 4.2m/s | -51.6°C | 4.0% | 198.7hPa | 0V | 00:00:00 | 00:00:00 | 00:00:00 | |
| DJ2DS-15 | 2026-09-01 12:01:11 | 56.57337 | 3.81483 | 87° | 68km/h | 11791m | 5.0m/s | 0°C | 0% | 0hPa | 0V | 00:00:00 | 01:44:20 | 08:30:00 | |
| DJ2DS-15 | 2026-09-01 12:01:02 | 56.57323 | 3.81205 | 82° | 64km/h | 11753m | 4.8m/s | -52.5°C | 4.8% | 203.7hPa | 0V | 00:00:00 | 00:00:00 | 00:00:00 | |
| DJ2DS-15 | 2026-09-01 12:00:44 | 56.57286 | 3.80663 | 84° | 68km/h | 11674m | 4.3m/s | 0°C | 0% | 0hPa | 0V | 00:00:00 | 01:43:53 | 00:00:00 | |
| DJ2DS-15 | 2026-09-01 12:00:24 | 56.57225 | 3.80047 | 77° | 78km/h | 11585m | 3.5m/s | 0°C | 0% | 0hPa | 0V | 00:00:00 | 01:43:33 | 00:00:00 | |
| DJ2DS-15 | 2026-09-01 12:00:04 | 56.57097 | 3.79360 | 69° | 73km/h | 11496m | 3.6m/s | 0°C | 0% | 0hPa | 0V | 00:00:00 | 01:43:13 | 00:00:00 | |
| DJ2DS-15 | 2026-09-01 11:59:50 | 56.56999 | 3.78920 | 69° | 69km/h | 11435m | 4.4m/s | -55.7°C | -1.0% | 214.1hPa | 0V | 00:00:00 | 00:00:00 | 00:00:00 | |
| DJ2DS-15 | 2026-09-01 11:59:44 | 56.56966 | 3.78742 | 74° | 71km/h | 11409m | 4.2m/s | 0°C | 0% | 0hPa | 0V | 00:00:00 | 01:42:53 | 00:00:00 | |
| DJ2DS-15 | 2026-09-01 11:59:23 | 56.56857 | 3.78084 | 70° | 66km/h | 11317m | 3.9m/s | 0°C | 0% | 0hPa | 0V | 00:00:00 | 01:42:32 | 00:00:00 | |
| DJ2DS-15 | 2026-09-01 11:59:03 | 56.56747 | 3.77510 | 72° | 60km/h | 11225m | 3.9m/s | 0°C | 0% | 0hPa | 0V | 00:00:00 | 01:42:12 | 00:00:00 | |
| DJ2DS-15 | 2026-09-01 11:58:43 | 56.56659 | 3.76980 | 76° | 62km/h | 11132m | 5.6m/s | 0°C | 0% | 0hPa | 0V | 00:00:00 | 01:41:52 | 00:00:00 | |
| DJ2DS-15 | 2026-09-01 11:58:19 | 56.56575 | 3.76312 | 79° | 71km/h | 11026m | 4.6m/s | 0°C | 0% | 0hPa | 0V | 00:00:00 | 01:41:28 | 00:00:00 | |
| DJ2DS-15 | 2026-09-01 11:57:59 | 56.56499 | 3.75680 | 78° | 73km/h | 10940m | 4.3m/s | 0°C | 0% | 0hPa | 0V | 00:00:00 | 01:41:08 | 00:00:00 |